createdAt,value
2022-12-31T00:01:15.180Z,91.03
2022-12-31T00:04:17.904Z,91.34
2022-12-31T00:07:20.321Z,91.39
2022-12-31T00:10:23.012Z,91.35
2022-12-31T00:13:25.284Z,91.34
2022-12-31T00:16:33.869Z,91.27
2022-12-31T00:19:36.202Z,91.71
2022-12-31T00:22:38.774Z,91.52
2022-12-31T00:25:41.102Z,91.34
2022-12-31T00:28:44.757Z,91.49
2022-12-31T00:31:47.073Z,91.51
2022-12-31T00:34:49.709Z,91.70
2022-12-31T00:37:53.291Z,91.67
2022-12-31T00:40:55.895Z,91.51
2022-12-31T00:43:58.270Z,91.37
2022-12-31T00:47:00.847Z,91.42
2022-12-31T00:50:03.465Z,91.27
2022-12-31T00:53:06.098Z,91.06
2022-12-31T00:56:13.272Z,90.92
2022-12-31T00:59:15.903Z,91.18
2022-12-31T01:02:18.488Z,91.34
2022-12-31T01:05:21.293Z,91.60
2022-12-31T01:08:23.679Z,91.45
2022-12-31T01:11:29.519Z,91.39
2022-12-31T01:14:33.870Z,91.49
2022-12-31T01:17:36.548Z,91.54
2022-12-31T01:20:41.748Z,91.33
2022-12-31T01:23:44.778Z,91.31
2022-12-31T01:26:47.661Z,91.40
2022-12-31T01:29:50.278Z,91.35
2022-12-31T01:32:52.653Z,91.19
2022-12-31T01:35:55.273Z,91.44
2022-12-31T01:38:59.580Z,91.37
2022-12-31T01:42:02.217Z,91.54
2022-12-31T01:45:10.944Z,91.74
2022-12-31T01:48:17.140Z,91.74
2022-12-31T01:51:21.025Z,91.68
2022-12-31T01:54:25.938Z,91.60
2022-12-31T01:57:28.686Z,91.51
2022-12-31T02:00:32.698Z,91.29
2022-12-31T02:03:36.438Z,91.20
2022-12-31T02:06:47.487Z,91.10
2022-12-31T02:09:50.782Z,91.05
2022-12-31T02:12:53.248Z,91.00
2022-12-31T02:16:25.316Z,90.91
2022-12-31T02:20:01.497Z,90.89
2022-12-31T02:23:29.183Z,90.75
2022-12-31T02:26:44.442Z,90.68
2022-12-31T02:30:17.231Z,90.63
2022-12-31T02:33:38.936Z,90.52
2022-12-31T02:36:46.766Z,90.51
2022-12-31T02:39:49.525Z,90.70
2022-12-31T02:42:55.635Z,90.79
2022-12-31T02:46:08.309Z,90.74
2022-12-31T02:49:20.659Z,90.57
2022-12-31T02:52:38.934Z,90.44
2022-12-31T02:56:16.791Z,90.44
2022-12-31T02:59:53.870Z,90.54
2022-12-31T03:02:58.772Z,90.70
2022-12-31T03:06:04.450Z,90.78
2022-12-31T03:09:13.227Z,90.72
2022-12-31T03:12:35.078Z,90.72
2022-12-31T03:15:38.952Z,90.80
2022-12-31T03:19:00.108Z,91.19
2022-12-31T03:22:21.501Z,91.00
2022-12-31T03:25:35.952Z,91.07
2022-12-31T03:28:40.547Z,91.49
2022-12-31T03:31:42.871Z,91.19
2022-12-31T03:34:45.528Z,91.33
2022-12-31T03:37:49.392Z,91.20
2022-12-31T03:40:53.693Z,91.23
2022-12-31T03:43:56.025Z,91.20
2022-12-31T03:46:58.610Z,91.12
2022-12-31T03:50:00.962Z,91.11
2022-12-31T03:53:03.683Z,90.90
2022-12-31T03:56:06.270Z,90.99
2022-12-31T03:59:08.904Z,91.06
2022-12-31T04:02:11.543Z,91.50
2022-12-31T04:05:14.909Z,91.32
2022-12-31T04:08:17.238Z,91.11
2022-12-31T04:11:21.140Z,91.21
2022-12-31T04:14:23.761Z,91.12
2022-12-31T04:17:27.057Z,90.97
2022-12-31T04:20:29.395Z,90.80
2022-12-31T04:23:32.002Z,90.71
2022-12-31T04:26:34.698Z,90.93
2022-12-31T04:29:37.881Z,90.87
2022-12-31T04:32:40.362Z,90.92
2022-12-31T04:35:42.951Z,91.05
2022-12-31T04:38:45.280Z,91.18
2022-12-31T04:41:48.027Z,91.46
2022-12-31T04:44:50.326Z,91.86
2022-12-31T04:47:52.940Z,91.86
2022-12-31T04:50:55.272Z,92.25
2022-12-31T04:53:58.508Z,92.22
2022-12-31T04:57:00.818Z,92.40
2022-12-31T05:00:03.984Z,92.50
2022-12-31T05:03:06.360Z,92.81
2022-12-31T05:06:14.712Z,92.65
2022-12-31T05:09:17.168Z,92.66
2022-12-31T05:12:20.637Z,92.87
2022-12-31T05:15:22.974Z,92.96
2022-12-31T05:18:25.625Z,92.94
2022-12-31T05:21:27.963Z,92.83
2022-12-31T05:24:30.580Z,92.88
2022-12-31T05:27:33.730Z,92.99
2022-12-31T05:30:37.317Z,93.06
2022-12-31T05:33:39.892Z,93.13
2022-12-31T05:36:42.560Z,93.10
2022-12-31T05:39:44.891Z,93.05
2022-12-31T05:42:47.721Z,93.20
2022-12-31T05:45:50.069Z,93.44
2022-12-31T05:48:52.717Z,93.49
2022-12-31T05:51:55.011Z,93.43
2022-12-31T05:54:57.680Z,93.52
2022-12-31T05:58:00.043Z,93.51
2022-12-31T06:01:02.932Z,93.37
2022-12-31T06:04:06.689Z,93.22
2022-12-31T06:07:08.990Z,93.34
2022-12-31T06:10:11.619Z,93.50
2022-12-31T06:13:13.926Z,93.59
2022-12-31T06:16:16.582Z,93.68
2022-12-31T06:19:18.954Z,93.73
2022-12-31T06:22:21.567Z,93.48
2022-12-31T06:25:23.900Z,93.32
2022-12-31T06:28:26.716Z,93.31
2022-12-31T06:31:29.882Z,92.94
2022-12-31T06:34:32.529Z,92.75
2022-12-31T06:37:35.128Z,92.81
2022-12-31T06:40:38.010Z,93.03
2022-12-31T06:43:42.092Z,93.21
2022-12-31T06:46:44.833Z,93.42
2022-12-31T06:49:47.270Z,93.93
2022-12-31T06:52:49.917Z,93.86
2022-12-31T06:55:52.420Z,93.69
2022-12-31T06:58:55.978Z,93.41
2022-12-31T07:02:10.241Z,93.16
2022-12-31T07:05:27.877Z,92.72
2022-12-31T07:08:48.770Z,92.57
2022-12-31T07:12:00.688Z,92.43
2022-12-31T07:15:10.323Z,92.26
2022-12-31T07:18:38.079Z,92.01
2022-12-31T07:21:41.521Z,91.77
2022-12-31T07:24:45.143Z,91.78
2022-12-31T07:27:59.608Z,91.51
2022-12-31T07:31:09.653Z,91.45
2022-12-31T07:34:11.888Z,91.58
2022-12-31T07:37:37.696Z,91.44
2022-12-31T07:41:11.270Z,91.53
2022-12-31T07:44:38.341Z,91.60
2022-12-31T07:47:41.046Z,91.67
2022-12-31T07:50:44.011Z,92.04
2022-12-31T07:53:46.448Z,92.07
2022-12-31T07:56:50.417Z,92.04
2022-12-31T08:00:03.432Z,92.08
2022-12-31T08:03:23.862Z,92.22
2022-12-31T08:07:02.034Z,91.68
2022-12-31T08:10:17.971Z,91.23
2022-12-31T08:13:21.257Z,91.03
2022-12-31T08:16:24.969Z,90.82
2022-12-31T08:19:32.641Z,90.75
2022-12-31T08:22:37.861Z,90.66
2022-12-31T08:25:52.666Z,90.48
2022-12-31T08:28:54.954Z,90.84
2022-12-31T08:32:09.793Z,90.88
2022-12-31T08:35:27.336Z,90.82
2022-12-31T08:38:53.330Z,90.73
2022-12-31T08:41:58.793Z,90.59
2022-12-31T08:45:23.673Z,90.46
2022-12-31T08:48:36.445Z,90.33
2022-12-31T08:51:39.452Z,89.98
2022-12-31T08:54:42.201Z,89.62
2022-12-31T08:58:05.025Z,89.22
2022-12-31T09:01:08.597Z,88.76
2022-12-31T09:04:21.364Z,88.80
2022-12-31T09:07:38.001Z,88.51
2022-12-31T09:10:54.045Z,88.25
2022-12-31T09:14:08.465Z,87.93
2022-12-31T09:17:38.680Z,87.50
2022-12-31T09:20:43.302Z,87.19
2022-12-31T09:23:47.188Z,87.06
2022-12-31T09:26:49.477Z,87.17
2022-12-31T09:30:08.601Z,87.11
2022-12-31T09:33:33.910Z,87.11
2022-12-31T09:36:46.365Z,87.10
2022-12-31T09:39:49.465Z,87.51
2022-12-31T09:43:10.106Z,87.54
2022-12-31T09:46:50.420Z,87.38
2022-12-31T09:50:18.238Z,87.01
2022-12-31T09:53:29.597Z,86.49
2022-12-31T09:57:02.104Z,86.25
2022-12-31T10:00:20.302Z,85.75
2022-12-31T10:03:29.057Z,85.37
2022-12-31T10:07:04.560Z,85.22
2022-12-31T10:10:18.807Z,85.35
2022-12-31T10:13:33.951Z,85.32
2022-12-31T10:17:13.989Z,85.17
2022-12-31T10:20:22.130Z,85.09
2022-12-31T10:23:49.471Z,85.10
2022-12-31T10:27:18.481Z,85.09
2022-12-31T10:30:24.143Z,85.08
2022-12-31T10:33:44.008Z,84.99
2022-12-31T10:37:07.598Z,85.20
2022-12-31T10:40:36.441Z,85.09
2022-12-31T10:44:05.032Z,84.98
2022-12-31T10:47:44.412Z,84.71
2022-12-31T10:51:20.844Z,84.93
2022-12-31T10:54:32.593Z,85.05
2022-12-31T10:57:58.630Z,85.20
2022-12-31T11:01:10.291Z,85.25
2022-12-31T11:04:12.910Z,85.34
2022-12-31T11:07:41.929Z,85.34
2022-12-31T11:10:53.424Z,85.31
2022-12-31T11:14:28.408Z,85.20
2022-12-31T11:17:36.926Z,85.23
2022-12-31T11:21:00.813Z,85.46
2022-12-31T11:24:25.428Z,85.54
2022-12-31T11:27:53.245Z,85.73
2022-12-31T11:31:28.826Z,85.99
2022-12-31T11:34:37.342Z,85.72
2022-12-31T11:37:48.733Z,85.71
2022-12-31T11:41:39.941Z,85.58
2022-12-31T11:44:49.207Z,85.50
2022-12-31T11:48:30.143Z,85.42
2022-12-31T11:51:50.622Z,85.38
2022-12-31T11:55:18.046Z,85.04
2022-12-31T11:58:20.815Z,84.97
2022-12-31T12:01:59.367Z,84.76
2022-12-31T12:05:10.695Z,84.79
2022-12-31T12:08:15.502Z,84.69
2022-12-31T12:11:22.766Z,84.54
2022-12-31T12:14:33.819Z,84.47
2022-12-31T12:17:37.221Z,84.58
2022-12-31T12:20:41.293Z,84.47
2022-12-31T12:24:14.493Z,84.41
2022-12-31T12:27:22.449Z,84.59
2022-12-31T12:30:27.510Z,84.51
2022-12-31T12:33:40.984Z,84.35
2022-12-31T12:36:47.841Z,84.16
2022-12-31T12:40:29.816Z,83.92
2022-12-31T12:43:37.763Z,83.84
2022-12-31T12:46:53.093Z,83.99
2022-12-31T12:49:56.232Z,84.01
2022-12-31T12:53:30.781Z,84.21
2022-12-31T12:56:36.156Z,84.13
2022-12-31T13:00:04.378Z,84.10
2022-12-31T13:03:30.014Z,84.11
2022-12-31T13:06:57.867Z,83.99
2022-12-31T13:10:06.274Z,84.07
2022-12-31T13:13:35.423Z,84.19
2022-12-31T13:16:59.678Z,84.38
2022-12-31T13:20:26.280Z,84.27
2022-12-31T13:23:51.697Z,84.10
2022-12-31T13:27:20.117Z,83.89
2022-12-31T13:30:31.304Z,83.70
2022-12-31T13:33:39.225Z,83.72
2022-12-31T13:36:44.956Z,83.71
2022-12-31T13:39:57.815Z,83.64
2022-12-31T13:43:14.596Z,83.88
2022-12-31T13:46:41.710Z,83.94
2022-12-31T13:49:51.597Z,83.95
2022-12-31T13:53:04.735Z,84.10
2022-12-31T13:56:15.654Z,84.27
2022-12-31T13:59:31.612Z,84.47
2022-12-31T14:02:45.036Z,84.61
2022-12-31T14:06:02.459Z,84.63
2022-12-31T14:09:06.710Z,84.60
2022-12-31T14:12:31.253Z,84.70
2022-12-31T14:15:44.448Z,84.75
2022-12-31T14:19:18.175Z,84.78
2022-12-31T14:22:36.865Z,84.83
2022-12-31T14:25:57.475Z,84.73
2022-12-31T14:29:08.994Z,84.83
2022-12-31T14:32:49.013Z,85.11
2022-12-31T14:36:15.858Z,85.12
2022-12-31T14:39:34.670Z,85.13
2022-12-31T14:43:03.085Z,85.14
2022-12-31T14:46:21.321Z,85.05
2022-12-31T14:50:23.825Z,85.08
2022-12-31T14:53:28.035Z,85.26
2022-12-31T14:56:45.021Z,85.43
2022-12-31T14:59:58.916Z,85.49
2022-12-31T15:03:25.317Z,85.75
2022-12-31T15:06:56.145Z,85.93
2022-12-31T15:10:23.618Z,86.08
2022-12-31T15:13:26.237Z,86.27
2022-12-31T15:16:48.666Z,86.43
2022-12-31T15:20:30.769Z,86.60
2022-12-31T15:23:38.471Z,86.98
2022-12-31T15:27:07.820Z,86.92
2022-12-31T15:30:46.591Z,86.79
2022-12-31T15:33:55.764Z,86.81
2022-12-31T15:37:01.305Z,86.76
2022-12-31T15:40:25.036Z,86.79
2022-12-31T15:43:35.898Z,86.89
2022-12-31T15:46:41.509Z,86.96
2022-12-31T15:49:47.519Z,87.03
2022-12-31T15:52:59.998Z,87.04
2022-12-31T15:56:03.244Z,86.91
2022-12-31T15:59:12.925Z,87.09
2022-12-31T16:02:25.778Z,87.24
2022-12-31T16:05:28.617Z,87.33
2022-12-31T16:08:35.480Z,87.30
2022-12-31T16:11:41.781Z,87.34
2022-12-31T16:14:46.623Z,87.34
2022-12-31T16:18:02.772Z,87.17
2022-12-31T16:21:05.634Z,86.97
2022-12-31T16:24:32.164Z,86.89
2022-12-31T16:27:35.954Z,86.69
2022-12-31T16:30:38.600Z,86.82
2022-12-31T16:33:40.925Z,87.03
2022-12-31T16:36:54.239Z,87.12
2022-12-31T16:39:56.596Z,87.16
2022-12-31T16:42:59.979Z,87.39
2022-12-31T16:46:10.456Z,87.53
2022-12-31T16:49:20.270Z,87.51
2022-12-31T16:52:44.556Z,87.41
2022-12-31T16:55:55.031Z,87.44
2022-12-31T16:59:04.046Z,87.40
2022-12-31T17:02:23.011Z,87.25
2022-12-31T17:05:27.050Z,87.45
2022-12-31T17:08:40.069Z,87.42
2022-12-31T17:11:48.275Z,88.04
2022-12-31T17:14:51.787Z,87.50
2022-12-31T17:18:01.248Z,87.26
2022-12-31T17:21:09.718Z,87.17
2022-12-31T17:24:13.576Z,87.05
2022-12-31T17:27:16.842Z,86.94
2022-12-31T17:30:37.024Z,87.00
2022-12-31T17:33:39.861Z,87.14
2022-12-31T17:36:54.421Z,87.24
2022-12-31T17:43:25.109Z,87.43
2022-12-31T17:46:29.853Z,87.64
2022-12-31T17:49:33.267Z,87.81
2022-12-31T17:52:35.906Z,87.94
2022-12-31T17:55:38.920Z,87.97
2022-12-31T17:58:52.485Z,87.98
2022-12-31T18:01:57.353Z,88.06
2022-12-31T18:05:00.007Z,88.15
2022-12-31T18:08:02.431Z,88.27
2022-12-31T18:11:05.388Z,88.37
2022-12-31T18:14:08.389Z,88.66
2022-12-31T18:17:16.992Z,88.55
2022-12-31T18:20:19.531Z,88.56
2022-12-31T18:23:35.270Z,88.85
2022-12-31T18:26:37.584Z,89.37
2022-12-31T18:29:40.194Z,89.77
2022-12-31T18:32:44.308Z,89.01
2022-12-31T18:36:08.330Z,88.73
2022-12-31T18:39:09.876Z,88.53
2022-12-31T18:42:14.229Z,88.54
2022-12-31T18:45:19.451Z,88.40
2022-12-31T18:48:22.136Z,88.35
2022-12-31T18:51:31.248Z,88.32
2022-12-31T18:54:35.835Z,88.29
2022-12-31T18:57:38.144Z,88.35
2022-12-31T19:00:41.117Z,88.41
2022-12-31T19:03:43.452Z,88.42
2022-12-31T19:06:48.507Z,88.42
2022-12-31T19:09:56.446Z,88.33
2022-12-31T19:13:01.129Z,88.07
2022-12-31T19:16:03.608Z,88.08
2022-12-31T19:19:08.667Z,88.09
2022-12-31T19:22:15.443Z,88.08
2022-12-31T19:25:21.644Z,88.08
2022-12-31T19:28:27.437Z,88.13
2022-12-31T19:31:30.082Z,88.27
2022-12-31T19:34:32.503Z,88.39
2022-12-31T19:37:35.174Z,88.44
2022-12-31T19:40:37.526Z,88.24
2022-12-31T19:43:40.140Z,88.24
2022-12-31T19:46:42.625Z,88.29
2022-12-31T19:49:45.296Z,88.37
2022-12-31T19:52:48.858Z,88.32
2022-12-31T19:55:52.527Z,88.10
2022-12-31T19:58:54.848Z,88.03
2022-12-31T20:01:57.625Z,88.04
2022-12-31T20:05:00.382Z,88.08
2022-12-31T20:08:02.745Z,88.08
2022-12-31T20:11:11.080Z,88.22
2022-12-31T20:14:13.449Z,88.29
2022-12-31T20:17:16.165Z,88.46
2022-12-31T20:20:18.643Z,88.67
2022-12-31T20:23:21.222Z,88.79
2022-12-31T20:26:24.618Z,88.81
2022-12-31T20:29:27.376Z,88.90
2022-12-31T20:32:29.666Z,88.89
2022-12-31T20:35:32.379Z,88.85
2022-12-31T20:38:35.086Z,88.81
2022-12-31T20:41:37.718Z,88.79
2022-12-31T20:44:40.092Z,88.87
2022-12-31T20:47:42.813Z,88.99
2022-12-31T20:50:54.422Z,89.10
2022-12-31T20:53:59.764Z,89.19
2022-12-31T20:57:02.167Z,89.28
2022-12-31T21:00:05.484Z,89.49
2022-12-31T21:03:23.796Z,89.67
2022-12-31T21:06:31.253Z,89.71
2022-12-31T21:09:33.919Z,89.73
2022-12-31T21:12:46.446Z,89.83
2022-12-31T21:15:53.884Z,89.85
2022-12-31T21:18:56.582Z,90.07
2022-12-31T21:21:58.914Z,90.24
2022-12-31T21:25:02.557Z,90.57
2022-12-31T21:28:05.152Z,90.89
2022-12-31T21:31:08.875Z,91.03
2022-12-31T21:34:11.384Z,91.01
2022-12-31T21:37:15.051Z,91.08
2022-12-31T21:40:17.481Z,91.24
2022-12-31T21:43:20.449Z,91.45
2022-12-31T21:46:23.142Z,91.66
2022-12-31T21:49:25.757Z,91.66
2022-12-31T21:52:30.422Z,91.80
2022-12-31T21:55:52.438Z,91.85
2022-12-31T21:59:15.309Z,91.88
2022-12-31T22:02:36.831Z,91.99
2022-12-31T22:05:46.907Z,91.95
2022-12-31T22:08:52.493Z,92.12
2022-12-31T22:11:55.149Z,92.22
2022-12-31T22:15:15.256Z,92.20
2022-12-31T22:18:18.949Z,92.26
2022-12-31T22:21:23.444Z,92.14
2022-12-31T22:24:26.104Z,92.09
2022-12-31T22:27:30.058Z,92.26
2022-12-31T22:30:34.320Z,92.27
2022-12-31T22:33:36.748Z,92.42
2022-12-31T22:36:39.383Z,92.51
2022-12-31T22:39:44.193Z,92.36
2022-12-31T22:42:47.729Z,92.41
2022-12-31T22:45:50.098Z,92.56
2022-12-31T22:48:54.522Z,92.39
2022-12-31T22:52:00.739Z,92.51
2022-12-31T22:55:06.045Z,92.53
2022-12-31T22:58:08.354Z,92.52
2022-12-31T23:01:22.950Z,92.42
2022-12-31T23:04:25.344Z,92.38
2022-12-31T23:07:28.002Z,92.29
2022-12-31T23:10:48.842Z,92.33
2022-12-31T23:14:09.940Z,92.50
2022-12-31T23:17:41.583Z,92.58
2022-12-31T23:21:03.210Z,92.69
2022-12-31T23:24:07.776Z,92.92
2022-12-31T23:27:14.431Z,93.10
2022-12-31T23:30:16.941Z,93.06
2022-12-31T23:33:25.462Z,92.96
2022-12-31T23:36:27.816Z,92.80
2022-12-31T23:39:30.835Z,92.80
2022-12-31T23:42:33.241Z,92.77
2022-12-31T23:45:36.785Z,92.56
2022-12-31T23:48:39.236Z,92.45
2022-12-31T23:51:41.903Z,92.52
2022-12-31T23:54:44.259Z,92.52
2022-12-31T23:57:46.890Z,92.57
